Time;durP1;ratioP1;P1;durP2;ratioP2;P2;SDS_P1;SDS_P2;PMS_P1;PMS_P2;Temp;Humidity;BMP_temperature;BMP_pressure;BME280_temperature;BME280_humidity;BME280_pressure;Samples;Min_cycle;Max_cycle;Signal;HPM_P1;HPM_P2
2021/09/06 00:02:07;;;;;;;1.05;1.05;;;;;;;6.16;81.71;100483.41;5069469;28;20084;-72
2021/09/06 00:04:33;;;;;;;3.72;1.60;;;;;;;6.15;81.56;100473.97;5069240;28;20536;-72
2021/09/06 00:06:59;;;;;;;1.13;1.13;;;;;;;6.17;81.95;100479.94;5068219;28;20138;-73
2021/09/06 00:09:25;;;;;;;1.88;1.77;;;;;;;6.13;81.76;100476.56;5069308;28;20044;-72
2021/09/06 00:11:51;;;;;;;1.10;1.10;;;;;;;6.09;81.94;100477.53;5068508;28;20675;-72
2021/09/06 00:14:17;;;;;;;1.15;1.15;;;;;;;6.07;81.80;100478.47;5069227;28;20083;-71
2021/09/06 00:16:43;;;;;;;2.38;2.28;;;;;;;6.11;82.13;100480.97;5068862;28;20052;-72
2021/09/06 00:19:09;;;;;;;1.85;1.50;;;;;;;6.07;82.10;100476.75;5069309;28;20072;-72
2021/09/06 00:21:36;;;;;;;1.05;1.05;;;;;;;6.10;81.83;100481.84;5068757;28;20040;-71
2021/09/06 00:24:02;;;;;;;1.67;1.42;;;;;;;6.14;81.62;100482.63;5051454;28;20274;-70
2021/09/06 00:26:28;;;;;;;2.00;1.90;;;;;;;6.11;81.68;100472.34;5067930;28;20131;-72
2021/09/06 00:28:55;;;;;;;1.60;1.58;;;;;;;6.16;81.40;100475.63;5067558;28;20513;-71
2021/09/06 00:31:21;;;;;;;2.00;1.27;;;;;;;6.16;81.08;100467.88;5051267;28;20537;-72
2021/09/06 00:33:47;;;;;;;0.90;0.90;;;;;;;6.17;81.70;100477.34;5067641;28;20044;-71
2021/09/06 00:36:13;;;;;;;0.98;0.98;;;;;;;6.18;80.99;100482.47;5067787;28;20055;-71
2021/09/06 00:38:39;;;;;;;1.33;1.30;;;;;;;6.13;81.21;100473.13;5068543;28;20082;-71
2021/09/06 00:41:05;;;;;;;1.30;1.30;;;;;;;6.15;81.24;100479.97;5033600;28;20052;-72
2021/09/06 00:43:31;;;;;;;1.50;1.50;;;;;;;6.15;80.85;100472.19;5074786;28;20048;-72
2021/09/06 00:45:57;;;;;;;1.20;1.20;;;;;;;6.14;80.68;100473.09;5068683;28;20056;-72
2021/09/06 00:48:25;;;;;;;2.33;2.15;;;;;;;6.11;81.34;100474.94;5067484;28;20383;-71
2021/09/06 00:50:51;;;;;;;2.05;1.95;;;;;;;6.11;80.87;100465.41;5067456;28;20076;-73
2021/09/06 00:53:17;;;;;;;1.15;1.10;;;;;;;6.16;81.05;100476.50;5051085;28;20048;-72
2021/09/06 00:55:43;;;;;;;1.67;1.58;;;;;;;6.09;80.87;100471.50;5067237;28;20072;-72
2021/09/06 00:58:09;;;;;;;1.08;0.65;;;;;;;6.14;80.97;100470.50;5068074;28;20132;-72
2021/09/06 01:00:36;;;;;;;0.85;0.85;;;;;;;6.09;80.24;100462.00;5071042;28;20509;-74
2021/09/06 01:03:02;;;;;;;1.27;1.27;;;;;;;6.19;80.92;100480.75;5071092;28;20063;-73
2021/09/06 01:05:29;;;;;;;2.38;1.95;;;;;;;6.17;81.21;100478.22;5069384;28;20043;-71
2021/09/06 01:08:12;;;;;;;1.27;1.17;;;;;;;6.19;80.88;100491.97;5053896;28;20736;-72
2021/09/06 01:10:55;;;;;;;1.40;1.40;;;;;;;6.16;81.37;100479.09;5067959;28;20599;-71
2021/09/06 01:13:45;;;;;;;0.90;0.90;;;;;;;6.13;80.67;100486.94;5041434;28;20521;-71
2021/09/06 01:16:11;;;;;;;0.98;0.98;;;;;;;6.14;80.90;100487.81;5052205;28;20502;-70
2021/09/06 01:18:39;;;;;;;2.38;2.17;;;;;;;6.17;80.75;100488.56;5067358;28;20118;-70
2021/09/06 01:21:05;;;;;;;1.20;1.20;;;;;;;6.20;81.01;100491.09;5050922;28;20139;-71
2021/09/06 01:23:48;;;;;;;1.15;1.15;;;;;;;6.22;80.45;100486.69;5055202;28;20114;-71
2021/09/06 01:26:18;;;;;;;1.02;1.02;;;;;;;6.25;80.40;100486.59;5070833;28;20044;-71
2021/09/06 01:28:44;;;;;;;0.82;0.82;;;;;;;6.25;81.22;100498.72;5054115;28;20064;-73
2021/09/06 01:31:10;;;;;;;1.13;0.98;;;;;;;6.25;80.19;100480.56;5070869;28;20041;-73
2021/09/06 01:33:44;;;;;;;0.90;0.90;;;;;;;6.29;80.45;100490.81;5071791;28;20048;-73
2021/09/06 01:36:12;;;;;;;1.67;1.60;;;;;;;6.26;80.42;100493.50;5070855;28;20109;-73
2021/09/06 01:38:38;;;;;;;0.50;0.50;;;;;;;6.27;80.22;100495.22;5070533;28;20076;-73
2021/09/06 01:41:04;;;;;;;5.18;1.75;;;;;;;6.27;79.98;100490.03;5071992;28;20083;-72
2021/09/06 01:43:31;;;;;;;0.63;0.63;;;;;;;6.19;80.92;100491.97;5070546;28;20084;-72
2021/09/06 01:45:57;;;;;;;1.45;1.30;;;;;;;6.13;80.57;100497.31;5071435;28;20044;-72
2021/09/06 01:48:23;;;;;;;1.42;1.40;;;;;;;6.24;79.79;100497.03;5070509;28;20055;-72
2021/09/06 01:50:49;;;;;;;0.75;0.75;;;;;;;6.21;80.07;100497.13;5071424;28;20050;-72
2021/09/06 01:53:16;;;;;;;1.33;1.33;;;;;;;6.19;79.69;100494.56;5037843;28;20049;-72
2021/09/06 01:55:45;;;;;;;1.05;1.05;;;;;;;6.29;78.39;100505.53;5054080;28;20041;-73
2021/09/06 01:58:14;;;;;;;0.95;0.95;;;;;;;6.33;78.12;100499.38;5070515;28;20178;-73
2021/09/06 02:00:40;;;;;;;1.23;1.23;;;;;;;6.31;78.41;100505.50;5070196;28;20040;-74
2021/09/06 02:03:06;;;;;;;0.57;0.57;;;;;;;6.31;78.85;100508.94;5053793;28;20501;-72
2021/09/06 02:05:53;;;;;;;0.80;0.80;;;;;;;6.29;79.25;100508.97;5069990;28;20696;-71
2021/09/06 02:08:32;;;;;;;0.70;0.70;;;;;;;6.30;79.41;100509.84;5070120;28;20062;-73
2021/09/06 02:11:00;;;;;;;2.47;2.28;;;;;;;6.27;79.00;100510.78;5069886;28;20048;-73
2021/09/06 02:13:26;;;;;;;0.80;0.80;;;;;;;6.20;79.42;100517.00;5054044;28;20497;-70
2021/09/06 02:15:52;;;;;;;0.85;0.85;;;;;;;6.15;79.04;100518.84;5070266;28;20237;-73
2021/09/06 02:18:30;;;;;;;0.50;0.50;;;;;;;6.05;79.96;100514.78;5070674;28;20044;-72
2021/09/06 02:20:57;;;;;;;0.98;0.98;;;;;;;5.93;80.50;100512.53;5070329;28;20056;-70
2021/09/06 02:23:24;;;;;;;0.77;0.77;;;;;;;5.85;81.04;100514.44;5070801;28;20041;-73
2021/09/06 02:26:03;;;;;;;0.60;0.60;;;;;;;5.81;81.44;100520.59;5052786;28;20190;-74
2021/09/06 02:28:48;;;;;;;0.60;0.60;;;;;;;5.74;81.87;100525.06;5070173;28;20079;-73
2021/09/06 02:31:37;;;;;;;0.90;0.90;;;;;;;5.59;82.31;100515.09;5070393;28;20131;-73
2021/09/06 02:34:24;;;;;;;0.63;0.63;;;;;;;5.60;82.52;100523.69;5070165;28;20048;-71
2021/09/06 02:36:55;;;;;;;1.77;1.73;;;;;;;5.56;82.83;100520.31;5071665;28;20060;-74
2021/09/06 02:39:36;;;;;;;0.43;0.43;;;;;;;5.66;82.13;100531.31;5040529;28;20514;-73
2021/09/06 02:42:03;;;;;;;0.88;0.88;;;;;;;5.59;82.05;100527.19;5069437;28;20255;-72
2021/09/06 02:44:34;;;;;;;1.42;1.40;;;;;;;5.64;81.35;100538.25;5068126;28;20067;-71
2021/09/06 02:47:06;;;;;;;0.80;0.80;;;;;;;5.68;81.34;100543.34;5053829;28;20417;-71
2021/09/06 02:49:33;;;;;;;1.42;1.42;;;;;;;5.67;81.06;100540.78;5070078;28;20723;-73
2021/09/06 02:52:02;;;;;;;1.30;1.30;;;;;;;5.70;81.06;100543.28;5070079;28;20541;-75
2021/09/06 02:54:49;;;;;;;1.85;0.90;;;;;;;5.61;80.54;100518.47;5037074;28;20040;-74
2021/09/06 02:57:22;;;;;;;1.15;1.15;;;;;;;5.85;79.28;100550.72;5069994;28;20107;-73
2021/09/06 02:59:49;;;;;;;1.63;1.52;;;;;;;5.88;79.81;100552.41;5069745;28;20052;-75
2021/09/06 03:02:38;;;;;;;0.63;0.63;;;;;;;5.93;79.40;100551.41;5036164;28;20484;-74
2021/09/06 03:05:14;;;;;;;1.98;1.88;;;;;;;5.94;78.81;100555.69;5071491;28;20102;-74
2021/09/06 03:08:05;;;;;;;0.82;0.82;;;;;;;6.04;78.30;100559.75;5069863;28;20261;-75
2021/09/06 03:10:31;;;;;;;0.98;0.98;;;;;;;6.06;78.12;100557.13;5070137;28;20418;-71
2021/09/06 03:12:58;;;;;;;1.15;1.15;;;;;;;6.19;78.37;100559.38;5052135;28;20044;-71
2021/09/06 03:15:24;;;;;;;2.55;2.35;;;;;;;7.32;74.56;100564.84;5052396;28;20079;-71
2021/09/06 03:17:54;;;;;;;1.00;1.00;;;;;;;8.23;70.88;100567.97;5068346;28;20044;-71
2021/09/06 03:20:39;;;;;;;0.80;0.80;;;;;;;9.21;65.22;100563.56;5069781;28;20482;-70
2021/09/06 03:23:06;;;;;;;1.45;1.45;;;;;;;9.50;65.08;100565.06;5051813;28;20052;-71
2021/09/06 03:25:31;;;;;;;1.52;1.52;;;;;;;10.42;61.14;100555.19;5070038;28;20098;-72
2021/09/06 03:27:58;;;;;;;3.08;2.00;;;;;;;10.21;61.65;100562.16;5051801;28;20051;-71
2021/09/06 03:30:24;;;;;;;1.33;1.23;;;;;;;10.03;62.21;100560.31;5068775;28;20052;-74
2021/09/06 03:32:51;;;;;;;1.60;1.60;;;;;;;10.41;61.07;100561.31;5068307;28;20697;-68
2021/09/06 03:35:17;;;;;;;0.93;0.93;;;;;;;10.20;61.50;100560.47;5068591;28;20060;-69
2021/09/06 03:37:45;;;;;;;1.05;1.05;;;;;;;9.88;63.36;100569.59;5067858;28;20049;-71
2021/09/06 03:40:12;;;;;;;1.20;1.20;;;;;;;10.37;61.53;100570.22;5068418;28;20044;-71
2021/09/06 03:42:38;;;;;;;2.20;2.10;;;;;;;11.03;59.39;100568.19;5067922;28;20500;-72
2021/09/06 03:45:05;;;;;;;1.63;1.55;;;;;;;11.54;57.42;100567.53;5067778;28;20049;-74
2021/09/06 03:47:32;;;;;;;1.23;1.23;;;;;;;11.22;58.78;100567.25;5050501;28;20040;-76
2021/09/06 03:50:00;;;;;;;1.83;1.73;;;;;;;11.24;58.50;100569.78;5040671;28;20121;-70
2021/09/06 03:52:28;;;;;;;2.53;2.25;;;;;;;11.43;58.35;100566.25;5061678;28;20033;-71
2021/09/06 03:54:55;;;;;;;2.00;1.90;;;;;;;11.22;59.14;100577.69;5059801;28;20075;-72
2021/09/06 03:57:21;;;;;;;2.20;1.77;;;;;;;10.98;59.93;100569.22;5068230;28;20043;-72
2021/09/06 03:59:47;;;;;;;1.15;1.15;;;;;;;11.23;59.50;100573.31;5067235;28;20056;-70
2021/09/06 04:02:13;;;;;;;1.38;1.38;;;;;;;11.34;59.05;100569.31;5067457;28;20052;-72
2021/09/06 04:04:39;;;;;;;2.90;1.60;;;;;;;11.46;58.93;100573.94;5067586;28;20041;-72
2021/09/06 04:07:05;;;;;;;1.63;1.63;;;;;;;11.11;59.67;100574.75;5067849;28;20090;-70
2021/09/06 04:09:38;;;;;;;2.08;1.98;;;;;;;11.15;59.48;100571.06;5063590;28;20064;-69
2021/09/06 04:12:04;;;;;;;1.25;1.25;;;;;;;11.36;59.51;100575.31;5048131;28;20060;-70
2021/09/06 04:14:32;;;;;;;4.97;1.50;;;;;;;12.52;56.44;100578.34;5049800;28;20072;-70
2021/09/06 04:16:59;;;;;;;1.00;1.00;;;;;;;12.18;56.98;100571.34;5066883;28;20052;-70
2021/09/06 04:19:30;;;;;;;1.20;1.20;;;;;;;12.10;56.24;100565.66;5047695;28;20080;-70
2021/09/06 04:22:01;;;;;;;1.17;1.17;;;;;;;12.19;56.62;100567.81;5046425;28;20052;-68
2021/09/06 04:24:29;;;;;;;1.48;1.38;;;;;;;12.34;55.95;100561.78;5030682;28;20057;-69
2021/09/06 04:26:57;;;;;;;1.38;1.38;;;;;;;12.57;54.07;100562.38;5051832;28;20460;-69
2021/09/06 04:29:25;;;;;;;1.13;1.13;;;;;;;12.14;55.05;100567.19;5050097;28;20133;-70
2021/09/06 04:31:53;;;;;;;0.70;0.70;;;;;;;12.08;54.61;100567.50;5066552;28;20428;-70
2021/09/06 04:34:19;;;;;;;7.88;1.35;;;;;;;12.02;55.10;100573.03;5066940;28;20106;-70
2021/09/06 04:36:45;;;;;;;1.00;1.00;;;;;;;12.42;54.66;100570.13;5050194;28;20040;-69
2021/09/06 04:39:12;;;;;;;1.00;1.00;;;;;;;13.08;51.78;100570.16;5083991;28;20052;-70
2021/09/06 04:41:38;;;;;;;0.80;0.80;;;;;;;12.09;53.76;100576.19;5063574;28;20043;-69
2021/09/06 04:44:04;;;;;;;1.60;1.50;;;;;;;12.70;52.91;100581.78;5069964;28;20093;-70
2021/09/06 04:46:31;;;;;;;1.42;1.42;;;;;;;13.57;50.36;100569.19;5053509;28;20071;-69
2021/09/06 04:48:57;;;;;;;1.33;1.33;;;;;;;13.81;49.27;100563.47;5066531;28;20056;-70
2021/09/06 04:51:24;;;;;;;1.08;1.08;;;;;;;14.60;47.36;100571.06;5067989;28;20053;-69
2021/09/06 04:53:52;;;;;;;1.30;1.30;;;;;;;13.82;49.42;100567.81;5069995;28;20472;-70
2021/09/06 04:56:23;;;;;;;4.40;3.15;;;;;;;13.68;49.18;100570.38;5070506;28;20401;-70
2021/09/06 04:58:49;;;;;;;1.23;1.23;;;;;;;14.17;48.29;100573.69;5074006;28;20090;-70
2021/09/06 05:01:16;;;;;;;1.42;1.38;;;;;;;14.18;47.35;100565.69;5090545;28;20546;-70
2021/09/06 05:03:44;;;;;;;1.25;1.25;;;;;;;13.07;51.17;100573.69;5073719;28;20054;-69
2021/09/06 05:06:11;;;;;;;1.00;1.00;;;;;;;13.70;49.21;100571.13;5074351;28;20052;-71
2021/09/06 05:08:45;;;;;;;1.67;1.65;;;;;;;13.25;50.08;100561.41;5074867;28;20052;-70
2021/09/06 05:12:03;;;;;;;1.08;1.08;;;;;;;12.90;50.85;100576.34;5074927;28;20090;-72
2021/09/06 05:15:04;;;;;;;1.00;1.00;;;;;;;13.49;49.54;100576.63;5074423;28;20393;-72
2021/09/06 05:17:45;;;;;;;0.80;0.80;;;;;;;13.36;48.44;100565.13;5020806;28;20071;-71
2021/09/06 05:20:52;;;;;;;1.10;1.10;;;;;;;13.48;49.23;100574.94;5092350;28;20487;-70
2021/09/06 05:23:18;;;;;;;1.58;1.48;;;;;;;13.34;48.85;100571.38;5090825;28;20490;-69
2021/09/06 05:25:46;;;;;;;3.40;1.30;;;;;;;13.48;49.23;100580.19;5074206;28;20079;-69
2021/09/06 05:28:19;;;;;;;0.88;0.88;;;;;;;13.30;49.72;100583.81;5058813;28;20056;-72
2021/09/06 05:30:47;;;;;;;0.73;0.73;;;;;;;12.70;50.36;100579.16;5091444;28;20571;-71
2021/09/06 05:33:13;;;;;;;1.75;1.65;;;;;;;13.15;50.66;100586.44;5040391;28;20048;-71
2021/09/06 05:35:39;;;;;;;1.15;1.15;;;;;;;13.66;48.50;100587.97;5073561;28;20050;-70
2021/09/06 05:38:09;;;;;;;0.88;0.88;;;;;;;13.48;49.34;100585.41;5091344;28;20052;-69
2021/09/06 05:41:17;;;;;;;1.27;1.17;;;;;;;13.00;49.67;100585.41;5019537;28;20058;-70
2021/09/06 05:43:44;;;;;;;1.00;1.00;;;;;;;13.23;49.83;100592.94;5000385;28;20053;-70
2021/09/06 05:46:19;;;;;;;4.80;1.27;;;;;;;13.29;48.66;100589.97;5045493;28;20473;-71
2021/09/06 05:48:46;;;;;;;1.10;1.10;;;;;;;13.63;48.50;100586.38;5068565;28;20048;-70
2021/09/06 05:51:12;;;;;;;2.38;1.75;;;;;;;13.92;47.51;100592.59;5053079;28;20099;-68
2021/09/06 05:53:56;;;;;;;1.13;1.13;;;;;;;14.19;46.11;100591.03;5052435;28;20040;-68
2021/09/06 05:56:49;;;;;;;1.13;1.02;;;;;;;14.31;46.52;100592.94;5053156;28;20099;-70
2021/09/06 05:59:29;;;;;;;0.70;0.70;;;;;;;13.48;47.39;100602.97;5064680;28;20521;-69
2021/09/06 06:01:55;;;;;;;1.45;1.35;;;;;;;13.89;46.13;100600.66;5052399;28;20127;-68
2021/09/06 06:04:21;;;;;;;1.15;1.15;;;;;;;14.66;44.07;100597.94;5053088;28;20040;-70
2021/09/06 06:06:52;;;;;;;1.42;1.33;;;;;;;14.81;43.76;100604.91;5052685;28;20352;-70
2021/09/06 06:09:19;;;;;;;1.55;1.45;;;;;;;14.65;44.33;100601.50;5052150;28;20587;-71
2021/09/06 06:11:46;;;;;;;1.10;1.10;;;;;;;14.13;45.50;100609.78;5058354;28;20509;-69
2021/09/06 06:14:17;;;;;;;1.45;1.25;;;;;;;14.94;43.95;100608.47;5071478;28;20055;-71
2021/09/06 06:16:47;;;;;;;1.05;1.05;;;;;;;14.40;44.08;100608.19;5056297;28;20163;-71
2021/09/06 06:19:13;;;;;;;1.55;1.45;;;;;;;14.21;44.72;100607.53;5055987;28;20370;-71
2021/09/06 06:21:57;;;;;;;0.82;0.82;;;;;;;14.09;44.71;100605.63;5083563;28;20063;-71
2021/09/06 06:24:49;;;;;;;0.70;0.70;;;;;;;13.99;45.85;100609.69;5085301;28;20040;-70
2021/09/06 06:27:26;;;;;;;1.40;1.30;;;;;;;13.19;46.54;100619.41;5088852;28;20044;-69
2021/09/06 06:29:53;;;;;;;1.17;1.17;;;;;;;13.20;46.71;100616.72;5088743;28;20087;-69
2021/09/06 06:32:19;;;;;;;1.40;1.30;;;;;;;13.83;45.14;100614.13;5071967;28;20516;-70
2021/09/06 06:34:57;;;;;;;1.10;1.10;;;;;;;14.45;43.29;100600.91;5071982;28;20110;-69
2021/09/06 06:37:24;;;;;;;1.23;1.23;;;;;;;14.28;43.74;100584.38;5090888;28;20051;-69
2021/09/06 06:39:57;;;;;;;0.60;0.60;;;;;;;12.20;46.46;100621.88;5088561;28;20055;-71
2021/09/06 06:42:42;;;;;;;1.60;1.50;;;;;;;13.00;44.91;100614.25;5088503;28;20046;-72
2021/09/06 06:45:36;;;;;;;5.90;1.70;;;;;;;12.92;44.96;100603.34;5060614;28;20154;-70
2021/09/06 06:48:04;;;;;;;1.23;1.23;;;;;;;14.16;42.81;100606.13;5088476;28;20134;-69
2021/09/06 06:50:30;;;;;;;1.80;1.70;;;;;;;13.16;44.32;100612.56;5072177;28;20126;-70
2021/09/06 06:52:57;;;;;;;0.75;0.75;;;;;;;13.72;43.94;100616.50;5088393;28;20563;-70
2021/09/06 06:55:23;;;;;;;0.60;0.60;;;;;;;13.74;44.08;100619.88;5072024;28;20044;-71
2021/09/06 06:57:50;;;;;;;11.38;1.45;;;;;;;13.08;44.04;100612.09;5088472;28;20516;-71
2021/09/06 07:00:16;;;;;;;1.48;1.30;;;;;;;13.25;42.71;100616.47;5071977;28;20410;-71
2021/09/06 07:02:44;;;;;;;0.93;0.93;;;;;;;13.91;42.88;100622.41;5071617;28;20492;-70
2021/09/06 07:05:11;;;;;;;0.90;0.90;;;;;;;13.23;44.31;100616.53;5074089;28;20417;-69
2021/09/06 07:07:41;;;;;;;1.45;1.35;;;;;;;11.89;47.13;100632.97;5068515;28;20052;-70
2021/09/06 07:10:09;;;;;;;1.58;1.23;;;;;;;13.14;44.03;100629.28;5054332;28;20442;-70
2021/09/06 07:12:35;;;;;;;0.90;0.90;;;;;;;13.50;42.76;100619.47;5066108;28;20052;-71
2021/09/06 07:15:01;;;;;;;1.55;1.55;;;;;;;14.04;41.66;100615.53;5050983;28;20079;-72
2021/09/06 07:17:27;;;;;;;1.30;1.30;;;;;;;13.93;41.99;100623.19;5069214;28;20382;-71
2021/09/06 07:19:53;;;;;;;5.70;0.77;;;;;;;13.51;43.91;100631.66;5034636;28;20604;-70
2021/09/06 07:22:22;;;;;;;0.80;0.80;;;;;;;11.88;45.13;100619.94;5069439;28;20052;-72
2021/09/06 07:24:48;;;;;;;1.20;1.20;;;;;;;12.21;44.79;100634.03;5051219;28;20052;-72
2021/09/06 07:27:14;;;;;;;1.00;1.00;;;;;;;12.17;43.14;100621.19;5051165;28;20052;-70
2021/09/06 07:29:41;;;;;;;1.02;1.00;;;;;;;13.13;42.54;100631.06;5040867;28;20050;-71
2021/09/06 07:32:08;;;;;;;1.02;1.02;;;;;;;15.01;38.99;100625.56;5053948;28;20047;-70
2021/09/06 07:34:37;;;;;;;2.40;1.30;;;;;;;15.76;37.32;100624.41;5052737;28;20063;-71
2021/09/06 07:37:03;;;;;;;3.05;1.23;;;;;;;14.44;39.58;100617.59;5069081;28;20044;-71
2021/09/06 07:39:30;;;;;;;0.63;0.63;;;;;;;14.29;39.57;100623.72;5085910;28;20051;-70
2021/09/06 07:41:56;;;;;;;0.45;0.45;;;;;;;13.05;41.05;100613.06;5068258;28;20182;-72
2021/09/06 07:44:22;;;;;;;0.40;0.40;;;;;;;12.27;42.20;100628.47;5068962;28;20492;-70
2021/09/06 07:46:48;;;;;;;0.80;0.80;;;;;;;12.15;41.46;100628.25;5049900;28;20052;-71
2021/09/06 07:49:15;;;;;;;0.63;0.63;;;;;;;12.64;39.98;100624.88;5049884;28;20063;-71
2021/09/06 07:51:46;;;;;;;0.75;0.75;;;;;;;12.24;41.88;100618.16;5070749;28;20067;-71
2021/09/06 07:54:12;;;;;;;0.82;0.82;;;;;;;13.13;38.02;100617.97;5050285;28;20090;-71
2021/09/06 07:56:38;;;;;;;0.60;0.60;;;;;;;13.43;37.58;100618.94;5050728;28;20614;-72
2021/09/06 07:59:05;;;;;;;0.82;0.82;;;;;;;14.15;36.63;100615.78;5062417;28;20117;-71
2021/09/06 08:01:32;;;;;;;0.68;0.68;;;;;;;13.49;37.27;100617.75;5069120;28;20051;-71
2021/09/06 08:03:57;;;;;;;0.77;0.77;;;;;;;13.77;36.18;100614.47;5053591;28;20048;-70
2021/09/06 08:06:24;;;;;;;1.02;1.02;;;;;;;14.26;36.20;100617.78;5089827;28;20102;-72
2021/09/06 08:08:50;;;;;;;0.80;0.80;;;;;;;15.17;34.51;100605.28;5069410;28;20051;-71
2021/09/06 08:11:16;;;;;;;2.65;1.40;;;;;;;14.50;36.89;100619.84;5088789;28;20048;-71
2021/09/06 08:13:43;;;;;;;1.00;1.00;;;;;;;12.76;38.64;100618.19;5070599;28;20048;-70
2021/09/06 08:16:10;;;;;;;0.95;0.95;;;;;;;12.37;39.74;100626.25;5070308;28;20472;-71
2021/09/06 08:18:38;;;;;;;1.00;1.00;;;;;;;14.29;36.45;100621.09;5086836;28;20147;-71
2021/09/06 08:21:04;;;;;;;3.47;3.08;;;;;;;15.07;35.25;100609.41;5070836;28;20041;-72
2021/09/06 08:23:30;;;;;;;1.52;0.63;;;;;;;14.50;36.93;100613.75;5052308;28;20075;-71
2021/09/06 08:26:02;;;;;;;1.30;1.13;;;;;;;12.57;41.08;100625.25;5051362;28;20041;-69
2021/09/06 08:28:29;;;;;;;1.95;0.70;;;;;;;12.31;41.62;100624.78;5067255;28;20045;-71
2021/09/06 08:30:55;;;;;;;0.95;0.95;;;;;;;12.92;40.74;100635.66;5050313;28;20049;-73
2021/09/06 08:33:23;;;;;;;1.35;1.25;;;;;;;13.26;40.24;100626.00;5053472;28;20102;-71
2021/09/06 08:35:49;;;;;;;0.70;0.70;;;;;;;13.64;38.31;100622.19;5088750;28;20106;-71
2021/09/06 08:38:18;;;;;;;0.98;0.98;;;;;;;14.33;37.85;100609.47;5089458;28;20143;-70
2021/09/06 08:40:48;;;;;;;1.00;1.00;;;;;;;14.19;37.39;100625.16;5074197;28;20170;-70
2021/09/06 08:43:14;;;;;;;0.55;0.55;;;;;;;12.92;39.51;100621.69;5070093;28;20052;-70
2021/09/06 08:45:41;;;;;;;1.05;1.05;;;;;;;12.99;40.75;100628.28;5063865;28;20460;-71
2021/09/06 08:48:07;;;;;;;0.82;0.60;;;;;;;12.73;41.59;100618.34;5074017;28;20052;-72
2021/09/06 08:50:34;;;;;;;1.27;1.25;;;;;;;13.95;39.82;100626.56;5074413;28;20048;-71
2021/09/06 08:53:00;;;;;;;0.70;0.70;;;;;;;14.69;37.59;100616.16;5092160;28;20509;-71
2021/09/06 08:55:26;;;;;;;1.10;0.60;;;;;;;14.08;38.35;100612.66;5074227;28;20456;-70
2021/09/06 08:57:53;;;;;;;1.23;1.02;;;;;;;13.40;40.13;100626.97;5073825;28;20048;-69
2021/09/06 09:00:26;;;;;;;0.80;0.80;;;;;;;13.57;39.12;100595.44;5074047;28;20058;-71
2021/09/06 09:03:11;;;;;;;0.43;0.43;;;;;;;14.02;38.14;100612.16;5076421;28;20509;-70
2021/09/06 09:06:02;;;;;;;1.13;1.13;;;;;;;12.93;39.12;100607.63;5091030;28;20059;-72
2021/09/06 09:08:48;;;;;;;1.13;1.13;;;;;;;13.13;40.19;100619.72;5080989;28;20143;-70
2021/09/06 09:11:23;;;;;;;0.70;0.70;;;;;;;12.81;40.35;100624.00;5090930;28;20048;-71
2021/09/06 09:13:50;;;;;;;1.00;1.00;;;;;;;12.68;41.45;100630.81;5085293;28;20044;-70
2021/09/06 09:16:34;;;;;;;0.55;0.55;;;;;;;12.52;41.16;100622.88;5070196;28;20076;-70
2021/09/06 09:19:22;;;;;;;0.85;0.77;;;;;;;12.65;41.34;100623.97;5059988;28;20121;-70
2021/09/06 09:22:37;;;;;;;0.85;0.85;;;;;;;12.67;40.49;100629.09;5008794;28;20112;-69
2021/09/06 09:25:22;;;;;;;0.77;0.77;;;;;;;12.36;41.37;100616.72;5071946;28;20506;-70
2021/09/06 09:28:26;;;;;;;1.55;1.55;;;;;;;12.20;41.67;100629.72;5040398;28;20405;-71
2021/09/06 09:31:17;;;;;;;0.70;0.70;;;;;;;11.89;41.77;100626.88;5079602;28;20511;-71
2021/09/06 09:33:53;;;;;;;0.60;0.60;;;;;;;12.10;41.02;100628.47;5088366;28;20056;-71
2021/09/06 09:36:39;;;;;;;0.70;0.70;;;;;;;12.08;41.93;100616.38;5072871;28;20056;-72
2021/09/06 09:39:19;;;;;;;1.00;1.00;;;;;;;12.10;41.90;100628.47;5090023;28;20036;-72
2021/09/06 09:41:48;;;;;;;3.40;1.35;;;;;;;12.22;41.43;100629.63;5091406;28;20056;-73
2021/09/06 09:44:20;;;;;;;1.30;0.97;;;;;;;12.67;40.68;100623.84;5072036;28;20079;-72
2021/09/06 09:47:02;;;;;;;2.60;1.80;;;;;;;13.04;40.49;100616.66;5073018;28;20290;-72
2021/09/06 09:49:30;;;;;;;0.50;0.50;;;;;;;12.99;40.27;100623.03;5091414;28;20048;-72
2021/09/06 09:51:56;;;;;;;1.73;0.98;;;;;;;13.91;38.22;100620.63;5072746;28;20044;-73
2021/09/06 09:54:22;;;;;;;0.77;0.77;;;;;;;13.61;39.07;100622.34;5091180;28;20051;-72
2021/09/06 09:56:49;;;;;;;1.50;1.40;;;;;;;14.31;37.51;100619.19;5091342;28;20519;-71
2021/09/06 09:59:16;;;;;;;3.30;1.15;;;;;;;13.80;37.72;100611.66;5089678;28;20518;-71
2021/09/06 10:02:04;;;;;;;0.60;0.60;;;;;;;13.01;39.80;100623.81;5073331;28;20372;-73
2021/09/06 10:04:35;;;;;;;0.75;0.75;;;;;;;12.57;40.53;100613.00;5091116;28;20082;-71
2021/09/06 10:07:03;;;;;;;0.55;0.55;;;;;;;12.61;41.41;100627.66;5089485;28;20135;-71
2021/09/06 10:09:42;;;;;;;1.45;1.35;;;;;;;12.22;41.76;100630.50;5073026;28;20056;-72
2021/09/06 10:12:08;;;;;;;0.75;0.75;;;;;;;12.08;43.21;100625.06;5072467;28;20048;-71
2021/09/06 10:14:35;;;;;;;0.68;0.68;;;;;;;12.65;41.32;100633.59;5090552;28;20052;-71
2021/09/06 10:17:04;;;;;;;0.70;0.70;;;;;;;13.33;37.98;100622.13;5089123;28;20043;-72
2021/09/06 10:19:44;;;;;;;1.08;1.00;;;;;;;13.25;39.98;100609.44;5090792;28;20051;-71
2021/09/06 10:22:21;;;;;;;1.60;1.40;;;;;;;13.76;38.15;100610.16;5089216;28;20040;-70
2021/09/06 10:25:03;;;;;;;0.60;0.60;;;;;;;13.30;38.74;100612.66;5090531;28;20047;-72
2021/09/06 10:27:32;;;;;;;1.05;1.05;;;;;;;13.98;37.00;100608.00;5072522;28;20378;-71
2021/09/06 10:30:08;;;;;;;0.73;0.73;;;;;;;14.50;35.75;100598.81;5090024;28;20100;-72
2021/09/06 10:32:42;;;;;;;1.45;1.38;;;;;;;13.50;37.28;100588.81;5090598;28;20040;-72
2021/09/06 10:35:22;;;;;;;1.15;1.15;;;;;;;13.69;37.81;100599.13;5090259;28;20070;-70
2021/09/06 10:38:05;;;;;;;0.80;0.80;;;;;;;13.69;36.67;100599.13;5090493;28;20074;-72
2021/09/06 10:40:33;;;;;;;1.25;1.15;;;;;;;13.44;36.73;100594.41;5090396;28;20073;-72
2021/09/06 10:43:20;;;;;;;0.80;0.80;;;;;;;12.95;39.45;100601.41;5088372;28;20098;-73
2021/09/06 10:45:50;;;;;;;1.20;1.10;;;;;;;12.80;41.19;100596.94;5072676;28;20057;-73
2021/09/06 10:48:27;;;;;;;0.82;0.82;;;;;;;12.73;41.22;100592.94;5055193;28;20071;-72
2021/09/06 10:50:53;;;;;;;0.73;0.73;;;;;;;12.44;40.50;100609.31;5072634;28;20043;-74
2021/09/06 10:53:22;;;;;;;1.27;1.20;;;;;;;12.57;39.18;100612.16;5069095;28;20052;-71
2021/09/06 10:55:50;;;;;;;1.23;1.23;;;;;;;12.80;37.58;100591.72;5089569;28;20048;-72
2021/09/06 10:58:16;;;;;;;0.47;0.47;;;;;;;12.97;37.99;100606.56;5089840;28;20056;-71
2021/09/06 11:00:54;;;;;;;0.40;0.40;;;;;;;13.00;39.67;100603.78;5089883;28;20043;-71
2021/09/06 11:03:20;;;;;;;0.73;0.73;;;;;;;12.68;39.68;100607.22;5090422;28;20052;-72
2021/09/06 11:05:54;;;;;;;1.42;0.77;;;;;;;12.46;41.70;100610.94;5089926;28;20059;-72
2021/09/06 11:08:26;;;;;;;0.32;0.32;;;;;;;12.16;42.92;100609.00;5088736;28;20067;-72
2021/09/06 11:10:54;;;;;;;0.60;0.60;;;;;;;12.20;43.28;100608.78;5089514;28;20055;-72
2021/09/06 11:13:51;;;;;;;1.70;1.60;;;;;;;12.26;42.66;100608.47;5071755;28;20059;-72
2021/09/06 11:16:19;;;;;;;1.05;1.05;;;;;;;12.08;43.03;100606.75;5038565;28;20058;-70
2021/09/06 11:18:50;;;;;;;1.35;1.35;;;;;;;12.65;41.12;100604.75;5089776;28;20052;-71
2021/09/06 11:21:23;;;;;;;0.60;0.60;;;;;;;13.12;38.73;100592.66;5089566;28;20048;-70
2021/09/06 11:23:50;;;;;;;0.65;0.65;;;;;;;13.51;37.60;100587.88;5089331;28;20139;-74
2021/09/06 11:26:28;;;;;;;0.52;0.52;;;;;;;13.23;36.06;100579.84;5089294;28;20097;-72
2021/09/06 11:28:56;;;;;;;1.08;0.88;;;;;;;13.89;37.25;100579.66;5088236;28;20047;-73
2021/09/06 11:31:25;;;;;;;7.30;2.60;;;;;;;14.22;34.27;100574.25;5078005;28;20040;-71
2021/09/06 11:34:05;;;;;;;1.02;1.02;;;;;;;13.88;35.59;100578.81;5051047;28;20115;-71
2021/09/06 11:36:34;;;;;;;1.08;1.08;;;;;;;14.30;34.58;100570.22;5083729;28;20044;-72
2021/09/06 11:39:00;;;;;;;0.70;0.70;;;;;;;14.28;34.87;100577.34;5070965;28;20139;-71
2021/09/06 11:41:26;;;;;;;0.82;0.82;;;;;;;14.48;33.98;100569.19;5071983;28;20052;-72
2021/09/06 11:43:53;;;;;;;0.68;0.68;;;;;;;14.64;34.77;100574.34;5088647;28;20047;-73
2021/09/06 11:46:21;;;;;;;1.48;1.48;;;;;;;14.77;33.45;100575.31;5079519;28;20052;-72